sensor_id;sensor_type;location;lat;lon;timestamp;temperature;humidity
7196;DHT22;3639;51.308;5.624;2023-01-26T00:01:24;-1.00;99.90
7196;DHT22;3639;51.308;5.624;2023-01-26T00:03:52;-0.90;99.90
7196;DHT22;3639;51.308;5.624;2023-01-26T00:06:20;-0.90;99.90
7196;DHT22;3639;51.308;5.624;2023-01-26T00:08:48;-0.90;99.90
7196;DHT22;3639;51.308;5.624;2023-01-26T00:11:17;-0.90;99.90
7196;DHT22;3639;51.308;5.624;2023-01-26T00:13:43;-0.90;99.90
7196;DHT22;3639;51.308;5.624;2023-01-26T00:16:13;-0.90;99.90
7196;DHT22;3639;51.308;5.624;2023-01-26T00:18:39;-0.90;99.90
7196;DHT22;3639;51.308;5.624;2023-01-26T00:21:07;-0.80;99.90
7196;DHT22;3639;51.308;5.624;2023-01-26T00:23:34;-0.80;99.90
7196;DHT22;3639;51.308;5.624;2023-01-26T00:26:00;-0.80;99.90
7196;DHT22;3639;51.308;5.624;2023-01-26T00:28:27;-0.80;99.90
7196;DHT22;3639;51.308;5.624;2023-01-26T00:30:52;-0.80;99.90
7196;DHT22;3639;51.308;5.624;2023-01-26T00:33:18;-0.80;99.90
7196;DHT22;3639;51.308;5.624;2023-01-26T00:35:44;-0.80;99.90
7196;DHT22;3639;51.308;5.624;2023-01-26T00:38:17;-0.80;99.90
7196;DHT22;3639;51.308;5.624;2023-01-26T00:40:43;-0.80;99.90
7196;DHT22;3639;51.308;5.624;2023-01-26T00:43:09;-0.80;99.90
7196;DHT22;3639;51.308;5.624;2023-01-26T00:45:34;-0.80;99.90
7196;DHT22;3639;51.308;5.624;2023-01-26T00:48:00;-0.80;99.90
7196;DHT22;3639;51.308;5.624;2023-01-26T00:50:26;-0.90;99.90
7196;DHT22;3639;51.308;5.624;2023-01-26T00:52:52;-0.80;99.90
7196;DHT22;3639;51.308;5.624;2023-01-26T00:55:18;-0.90;99.90
7196;DHT22;3639;51.308;5.624;2023-01-26T00:57:44;-0.80;99.90
7196;DHT22;3639;51.308;5.624;2023-01-26T01:00:10;-0.90;99.90
7196;DHT22;3639;51.308;5.624;2023-01-26T01:02:44;-0.90;99.90
7196;DHT22;3639;51.308;5.624;2023-01-26T01:05:10;-0.90;99.90
7196;DHT22;3639;51.308;5.624;2023-01-26T01:07:35;-0.90;99.90
7196;DHT22;3639;51.308;5.624;2023-01-26T01:10:01;-0.90;99.90
7196;DHT22;3639;51.308;5.624;2023-01-26T01:12:27;-0.90;99.90
7196;DHT22;3639;51.308;5.624;2023-01-26T01:14:52;-0.90;99.90
7196;DHT22;3639;51.308;5.624;2023-01-26T01:17:18;-0.90;99.90
7196;DHT22;3639;51.308;5.624;2023-01-26T01:19:44;-0.80;99.90
7196;DHT22;3639;51.308;5.624;2023-01-26T01:22:09;-0.90;99.90
7196;DHT22;3639;51.308;5.624;2023-01-26T01:24:35;-0.90;99.90
7196;DHT22;3639;51.308;5.624;2023-01-26T01:27:02;-0.80;99.90
7196;DHT22;3639;51.308;5.624;2023-01-26T01:29:28;-0.80;99.90
7196;DHT22;3639;51.308;5.624;2023-01-26T01:31:53;-0.80;99.90
7196;DHT22;3639;51.308;5.624;2023-01-26T01:34:19;-0.80;99.90
7196;DHT22;3639;51.308;5.624;2023-01-26T01:36:44;-0.80;99.90
7196;DHT22;3639;51.308;5.624;2023-01-26T01:39:10;-0.80;99.90
7196;DHT22;3639;51.308;5.624;2023-01-26T01:41:36;-0.80;99.90
7196;DHT22;3639;51.308;5.624;2023-01-26T01:44:15;-0.80;99.90
7196;DHT22;3639;51.308;5.624;2023-01-26T01:46:48;-0.70;99.90
7196;DHT22;3639;51.308;5.624;2023-01-26T01:49:22;-0.70;99.90
7196;DHT22;3639;51.308;5.624;2023-01-26T01:52:06;-0.70;99.90
7196;DHT22;3639;51.308;5.624;2023-01-26T01:54:41;-0.80;99.90
7196;DHT22;3639;51.308;5.624;2023-01-26T01:57:13;-0.80;99.90
7196;DHT22;3639;51.308;5.624;2023-01-26T01:59:50;-0.70;99.90
7196;DHT22;3639;51.308;5.624;2023-01-26T02:02:16;-0.80;99.90
7196;DHT22;3639;51.308;5.624;2023-01-26T02:04:42;-0.80;99.90
7196;DHT22;3639;51.308;5.624;2023-01-26T02:07:09;-0.80;99.90
7196;DHT22;3639;51.308;5.624;2023-01-26T02:09:37;-0.80;99.90
7196;DHT22;3639;51.308;5.624;2023-01-26T02:12:26;-0.70;99.90
7196;DHT22;3639;51.308;5.624;2023-01-26T02:14:54;-0.70;99.90
7196;DHT22;3639;51.308;5.624;2023-01-26T02:17:21;-0.70;99.90
7196;DHT22;3639;51.308;5.624;2023-01-26T02:20:03;-0.70;99.90
7196;DHT22;3639;51.308;5.624;2023-01-26T02:25:39;-0.60;99.90
7196;DHT22;3639;51.308;5.624;2023-01-26T02:28:07;-0.70;99.90
7196;DHT22;3639;51.308;5.624;2023-01-26T02:30:32;-0.70;99.90
7196;DHT22;3639;51.308;5.624;2023-01-26T02:32:58;-0.70;99.90
7196;DHT22;3639;51.308;5.624;2023-01-26T02:35:24;-0.70;99.90
7196;DHT22;3639;51.308;5.624;2023-01-26T02:37:50;-0.70;99.90
7196;DHT22;3639;51.308;5.624;2023-01-26T02:42:53;-0.60;99.90
7196;DHT22;3639;51.308;5.624;2023-01-26T02:45:20;-0.70;99.90
7196;DHT22;3639;51.308;5.624;2023-01-26T02:47:46;-0.70;99.90
7196;DHT22;3639;51.308;5.624;2023-01-26T02:50:13;-0.60;99.90
7196;DHT22;3639;51.308;5.624;2023-01-26T02:52:39;-0.60;99.90
7196;DHT22;3639;51.308;5.624;2023-01-26T02:55:05;-0.60;99.90
7196;DHT22;3639;51.308;5.624;2023-01-26T02:58:09;-0.60;99.90
7196;DHT22;3639;51.308;5.624;2023-01-26T03:00:36;-0.60;99.90
7196;DHT22;3639;51.308;5.624;2023-01-26T03:03:04;-0.60;99.90
7196;DHT22;3639;51.308;5.624;2023-01-26T03:05:32;-0.60;99.90
7196;DHT22;3639;51.308;5.624;2023-01-26T03:07:58;-0.60;99.90
7196;DHT22;3639;51.308;5.624;2023-01-26T03:10:24;-0.50;99.90
7196;DHT22;3639;51.308;5.624;2023-01-26T03:12:51;-0.50;99.90
7196;DHT22;3639;51.308;5.624;2023-01-26T03:15:17;-0.50;99.90
7196;DHT22;3639;51.308;5.624;2023-01-26T03:18:07;-0.50;99.90
7196;DHT22;3639;51.308;5.624;2023-01-26T03:21:00;-0.50;99.90
7196;DHT22;3639;51.308;5.624;2023-01-26T03:23:45;-0.50;99.90
7196;DHT22;3639;51.308;5.624;2023-01-26T03:26:29;-0.40;99.90
7196;DHT22;3639;51.308;5.624;2023-01-26T03:29:13;-0.40;99.90
7196;DHT22;3639;51.308;5.624;2023-01-26T03:31:39;-0.40;99.90
7196;DHT22;3639;51.308;5.624;2023-01-26T03:34:04;-0.40;99.90
7196;DHT22;3639;51.308;5.624;2023-01-26T03:36:30;-0.40;99.90
7196;DHT22;3639;51.308;5.624;2023-01-26T03:38:56;-0.40;99.90
7196;DHT22;3639;51.308;5.624;2023-01-26T03:41:21;-0.30;99.90
7196;DHT22;3639;51.308;5.624;2023-01-26T03:44:05;-0.30;99.90
7196;DHT22;3639;51.308;5.624;2023-01-26T03:46:49;-0.30;99.90
7196;DHT22;3639;51.308;5.624;2023-01-26T03:49:34;-0.40;99.90
7196;DHT22;3639;51.308;5.624;2023-01-26T03:52:17;-0.30;99.90
7196;DHT22;3639;51.308;5.624;2023-01-26T03:55:01;-0.40;99.90
7196;DHT22;3639;51.308;5.624;2023-01-26T03:57:47;-0.30;99.90
7196;DHT22;3639;51.308;5.624;2023-01-26T04:00:13;-0.30;99.90
7196;DHT22;3639;51.308;5.624;2023-01-26T04:02:40;-0.30;99.90
7196;DHT22;3639;51.308;5.624;2023-01-26T04:05:24;-0.30;99.90
7196;DHT22;3639;51.308;5.624;2023-01-26T04:08:08;-0.30;99.90
7196;DHT22;3639;51.308;5.624;2023-01-26T04:10:55;-0.30;99.90
7196;DHT22;3639;51.308;5.624;2023-01-26T04:13:22;-0.30;99.90
7196;DHT22;3639;51.308;5.624;2023-01-26T04:16:08;-0.20;99.90
7196;DHT22;3639;51.308;5.624;2023-01-26T04:18:53;-0.20;99.90
7196;DHT22;3639;51.308;5.624;2023-01-26T04:21:38;-0.20;99.90
7196;DHT22;3639;51.308;5.624;2023-01-26T04:24:05;-0.20;99.90
7196;DHT22;3639;51.308;5.624;2023-01-26T04:26:40;-0.20;99.90
7196;DHT22;3639;51.308;5.624;2023-01-26T04:29:09;-0.20;99.90
7196;DHT22;3639;51.308;5.624;2023-01-26T04:31:36;-0.10;99.90
7196;DHT22;3639;51.308;5.624;2023-01-26T04:34:03;-0.10;99.90
7196;DHT22;3639;51.308;5.624;2023-01-26T04:36:29;-0.10;99.90
7196;DHT22;3639;51.308;5.624;2023-01-26T04:38:55;-0.10;99.90
7196;DHT22;3639;51.308;5.624;2023-01-26T04:41:21;0.00;99.90
7196;DHT22;3639;51.308;5.624;2023-01-26T04:43:47;0.00;99.90
7196;DHT22;3639;51.308;5.624;2023-01-26T04:46:13;-0.10;99.90
7196;DHT22;3639;51.308;5.624;2023-01-26T04:48:38;0.00;99.90
7196;DHT22;3639;51.308;5.624;2023-01-26T04:51:06;-0.10;99.90
7196;DHT22;3639;51.308;5.624;2023-01-26T04:53:33;-0.10;99.90
7196;DHT22;3639;51.308;5.624;2023-01-26T04:55:59;0.00;99.90
7196;DHT22;3639;51.308;5.624;2023-01-26T04:58:25;0.00;99.90
7196;DHT22;3639;51.308;5.624;2023-01-26T05:00:55;0.00;99.90
7196;DHT22;3639;51.308;5.624;2023-01-26T05:03:22;0.00;99.90
7196;DHT22;3639;51.308;5.624;2023-01-26T05:05:49;0.00;99.90
7196;DHT22;3639;51.308;5.624;2023-01-26T05:08:16;0.10;99.90
7196;DHT22;3639;51.308;5.624;2023-01-26T05:10:41;0.00;99.90
7196;DHT22;3639;51.308;5.624;2023-01-26T05:13:07;0.00;99.90
7196;DHT22;3639;51.308;5.624;2023-01-26T05:15:33;0.00;99.90
7196;DHT22;3639;51.308;5.624;2023-01-26T05:17:59;0.00;99.90
7196;DHT22;3639;51.308;5.624;2023-01-26T05:20:25;0.00;99.90
7196;DHT22;3639;51.308;5.624;2023-01-26T05:22:51;0.00;99.90
7196;DHT22;3639;51.308;5.624;2023-01-26T05:25:17;0.00;99.90
7196;DHT22;3639;51.308;5.624;2023-01-26T05:27:43;0.00;99.90
7196;DHT22;3639;51.308;5.624;2023-01-26T05:30:09;0.00;99.90
7196;DHT22;3639;51.308;5.624;2023-01-26T05:32:35;0.00;99.90
7196;DHT22;3639;51.308;5.624;2023-01-26T05:35:02;0.00;99.90
7196;DHT22;3639;51.308;5.624;2023-01-26T05:37:28;0.00;99.90
7196;DHT22;3639;51.308;5.624;2023-01-26T05:39:54;0.00;99.90
7196;DHT22;3639;51.308;5.624;2023-01-26T05:42:20;0.10;99.90
7196;DHT22;3639;51.308;5.624;2023-01-26T05:44:45;0.10;99.90
7196;DHT22;3639;51.308;5.624;2023-01-26T05:47:11;0.10;99.90
7196;DHT22;3639;51.308;5.624;2023-01-26T05:49:37;0.10;99.90
7196;DHT22;3639;51.308;5.624;2023-01-26T05:52:09;0.10;99.90
7196;DHT22;3639;51.308;5.624;2023-01-26T05:54:35;0.10;99.90
7196;DHT22;3639;51.308;5.624;2023-01-26T05:57:02;0.20;99.90
7196;DHT22;3639;51.308;5.624;2023-01-26T05:59:27;0.20;99.90
7196;DHT22;3639;51.308;5.624;2023-01-26T06:01:55;0.10;99.90
7196;DHT22;3639;51.308;5.624;2023-01-26T06:04:20;0.20;99.90
7196;DHT22;3639;51.308;5.624;2023-01-26T06:06:46;0.20;99.90
7196;DHT22;3639;51.308;5.624;2023-01-26T06:09:12;0.20;99.90
7196;DHT22;3639;51.308;5.624;2023-01-26T06:11:38;0.20;99.90
7196;DHT22;3639;51.308;5.624;2023-01-26T06:14:03;0.20;99.90
7196;DHT22;3639;51.308;5.624;2023-01-26T06:16:29;0.20;99.90
7196;DHT22;3639;51.308;5.624;2023-01-26T06:18:55;0.20;99.90
7196;DHT22;3639;51.308;5.624;2023-01-26T06:21:20;0.30;99.90
7196;DHT22;3639;51.308;5.624;2023-01-26T06:23:46;0.30;99.90
7196;DHT22;3639;51.308;5.624;2023-01-26T06:26:12;0.30;99.90
7196;DHT22;3639;51.308;5.624;2023-01-26T06:28:37;0.30;99.90
7196;DHT22;3639;51.308;5.624;2023-01-26T06:31:05;0.20;99.90
7196;DHT22;3639;51.308;5.624;2023-01-26T06:33:32;0.20;99.90
7196;DHT22;3639;51.308;5.624;2023-01-26T06:36:02;0.30;99.90
7196;DHT22;3639;51.308;5.624;2023-01-26T06:38:28;0.20;99.90
7196;DHT22;3639;51.308;5.624;2023-01-26T06:40:57;0.20;99.90
7196;DHT22;3639;51.308;5.624;2023-01-26T06:43:23;0.30;99.90
7196;DHT22;3639;51.308;5.624;2023-01-26T06:45:49;0.30;99.90
7196;DHT22;3639;51.308;5.624;2023-01-26T06:48:14;0.30;99.90
7196;DHT22;3639;51.308;5.624;2023-01-26T06:50:40;0.30;99.90
7196;DHT22;3639;51.308;5.624;2023-01-26T06:55:50;0.30;99.90
7196;DHT22;3639;51.308;5.624;2023-01-26T06:58:16;0.30;99.90
7196;DHT22;3639;51.308;5.624;2023-01-26T07:00:42;0.40;99.90
7196;DHT22;3639;51.308;5.624;2023-01-26T07:03:09;0.30;99.90
7196;DHT22;3639;51.308;5.624;2023-01-26T07:05:35;0.40;99.90
7196;DHT22;3639;51.308;5.624;2023-01-26T07:08:00;0.40;99.90
7196;DHT22;3639;51.308;5.624;2023-01-26T07:10:28;0.30;99.90
7196;DHT22;3639;51.308;5.624;2023-01-26T07:12:54;0.30;99.90
7196;DHT22;3639;51.308;5.624;2023-01-26T07:15:20;0.40;99.90
7196;DHT22;3639;51.308;5.624;2023-01-26T07:17:45;0.30;99.90
7196;DHT22;3639;51.308;5.624;2023-01-26T07:20:11;0.40;99.90
7196;DHT22;3639;51.308;5.624;2023-01-26T07:22:37;0.40;99.90
7196;DHT22;3639;51.308;5.624;2023-01-26T07:25:03;0.40;99.90
7196;DHT22;3639;51.308;5.624;2023-01-26T07:27:29;0.40;99.90
7196;DHT22;3639;51.308;5.624;2023-01-26T07:29:54;0.40;99.90
7196;DHT22;3639;51.308;5.624;2023-01-26T07:32:20;0.40;99.90
7196;DHT22;3639;51.308;5.624;2023-01-26T07:34:45;0.40;99.90
7196;DHT22;3639;51.308;5.624;2023-01-26T07:37:12;0.40;99.90
7196;DHT22;3639;51.308;5.624;2023-01-26T07:39:38;0.40;99.90
7196;DHT22;3639;51.308;5.624;2023-01-26T07:42:04;0.40;99.90
7196;DHT22;3639;51.308;5.624;2023-01-26T07:44:30;0.50;99.90
7196;DHT22;3639;51.308;5.624;2023-01-26T07:46:56;0.40;99.90
7196;DHT22;3639;51.308;5.624;2023-01-26T07:49:22;0.50;99.90
7196;DHT22;3639;51.308;5.624;2023-01-26T07:51:47;0.50;99.90
7196;DHT22;3639;51.308;5.624;2023-01-26T07:54:13;0.50;99.90
7196;DHT22;3639;51.308;5.624;2023-01-26T07:56:39;0.50;99.90
7196;DHT22;3639;51.308;5.624;2023-01-26T07:59:04;0.50;99.90
7196;DHT22;3639;51.308;5.624;2023-01-26T08:01:30;0.50;99.90
7196;DHT22;3639;51.308;5.624;2023-01-26T08:03:55;0.50;99.90
7196;DHT22;3639;51.308;5.624;2023-01-26T08:06:21;0.50;99.90
7196;DHT22;3639;51.308;5.624;2023-01-26T08:08:48;0.60;99.90
7196;DHT22;3639;51.308;5.624;2023-01-26T08:11:18;0.60;99.90
7196;DHT22;3639;51.308;5.624;2023-01-26T08:13:47;0.50;99.90
7196;DHT22;3639;51.308;5.624;2023-01-26T08:16:12;0.50;99.90
7196;DHT22;3639;51.308;5.624;2023-01-26T08:18:39;0.50;99.90
7196;DHT22;3639;51.308;5.624;2023-01-26T08:21:06;0.50;99.90
7196;DHT22;3639;51.308;5.624;2023-01-26T08:23:32;0.60;99.90
7196;DHT22;3639;51.308;5.624;2023-01-26T08:26:06;0.70;99.90
7196;DHT22;3639;51.308;5.624;2023-01-26T08:28:32;0.60;99.90
7196;DHT22;3639;51.308;5.624;2023-01-26T08:31:05;0.70;99.90
7196;DHT22;3639;51.308;5.624;2023-01-26T08:33:32;0.70;99.90
7196;DHT22;3639;51.308;5.624;2023-01-26T08:36:02;0.70;99.90
7196;DHT22;3639;51.308;5.624;2023-01-26T08:38:29;0.70;99.90
7196;DHT22;3639;51.308;5.624;2023-01-26T08:40:56;0.70;99.90
7196;DHT22;3639;51.308;5.624;2023-01-26T08:43:22;0.70;99.90
7196;DHT22;3639;51.308;5.624;2023-01-26T08:45:48;0.70;99.90
7196;DHT22;3639;51.308;5.624;2023-01-26T08:48:14;0.70;99.90
7196;DHT22;3639;51.308;5.624;2023-01-26T08:50:40;0.80;99.90
7196;DHT22;3639;51.308;5.624;2023-01-26T08:53:05;0.80;99.90
7196;DHT22;3639;51.308;5.624;2023-01-26T08:55:31;0.80;99.90
7196;DHT22;3639;51.308;5.624;2023-01-26T08:57:58;0.80;99.90
7196;DHT22;3639;51.308;5.624;2023-01-26T09:00:23;0.80;99.90
7196;DHT22;3639;51.308;5.624;2023-01-26T09:02:50;0.90;99.90
7196;DHT22;3639;51.308;5.624;2023-01-26T09:05:16;0.90;99.90
7196;DHT22;3639;51.308;5.624;2023-01-26T09:07:42;1.00;99.90
7196;DHT22;3639;51.308;5.624;2023-01-26T09:10:08;1.00;99.90
7196;DHT22;3639;51.308;5.624;2023-01-26T09:12:34;1.00;99.90
7196;DHT22;3639;51.308;5.624;2023-01-26T09:15:00;0.90;99.90
7196;DHT22;3639;51.308;5.624;2023-01-26T09:17:25;1.00;99.90
7196;DHT22;3639;51.308;5.624;2023-01-26T09:19:51;1.00;99.90
7196;DHT22;3639;51.308;5.624;2023-01-26T09:22:17;1.00;99.90
7196;DHT22;3639;51.308;5.624;2023-01-26T09:24:42;1.00;99.90
7196;DHT22;3639;51.308;5.624;2023-01-26T09:27:08;1.00;99.90
7196;DHT22;3639;51.308;5.624;2023-01-26T09:29:34;1.10;99.90
7196;DHT22;3639;51.308;5.624;2023-01-26T09:31:59;1.10;99.90
7196;DHT22;3639;51.308;5.624;2023-01-26T09:34:25;1.10;99.90
7196;DHT22;3639;51.308;5.624;2023-01-26T09:36:50;1.10;99.90
7196;DHT22;3639;51.308;5.624;2023-01-26T09:39:16;1.20;99.90
7196;DHT22;3639;51.308;5.624;2023-01-26T09:48:08;1.40;99.90
7196;DHT22;3639;51.308;5.624;2023-01-26T09:50:43;1.40;99.90
7196;DHT22;3639;51.308;5.624;2023-01-26T09:53:18;1.30;99.90
7196;DHT22;3639;51.308;5.624;2023-01-26T09:55:45;1.40;99.90
7196;DHT22;3639;51.308;5.624;2023-01-26T09:58:16;1.40;99.90
7196;DHT22;3639;51.308;5.624;2023-01-26T10:00:50;1.40;99.90
7196;DHT22;3639;51.308;5.624;2023-01-26T10:08:25;1.40;99.90
7196;DHT22;3639;51.308;5.624;2023-01-26T10:11:00;1.50;99.90
7196;DHT22;3639;51.308;5.624;2023-01-26T10:13:28;1.50;99.90
7196;DHT22;3639;51.308;5.624;2023-01-26T10:16:00;1.60;99.90
7196;DHT22;3639;51.308;5.624;2023-01-26T10:18:46;1.60;99.90
7196;DHT22;3639;51.308;5.624;2023-01-26T10:21:15;1.70;99.90
7196;DHT22;3639;51.308;5.624;2023-01-26T10:23:47;1.70;99.90
7196;DHT22;3639;51.308;5.624;2023-01-26T10:26:20;1.80;99.90
7196;DHT22;3639;51.308;5.624;2023-01-26T10:28:50;1.80;99.90
7196;DHT22;3639;51.308;5.624;2023-01-26T10:31:20;1.80;99.90
7196;DHT22;3639;51.308;5.624;2023-01-26T10:36:20;1.90;99.90
7196;DHT22;3639;51.308;5.624;2023-01-26T10:38:47;1.90;99.90
7196;DHT22;3639;51.308;5.624;2023-01-26T10:43:58;1.80;99.90
7196;DHT22;3639;51.308;5.624;2023-01-26T10:46:34;1.90;99.90
7196;DHT22;3639;51.308;5.624;2023-01-26T10:49:14;1.90;99.90
7196;DHT22;3639;51.308;5.624;2023-01-26T10:51:42;2.00;99.90
7196;DHT22;3639;51.308;5.624;2023-01-26T10:54:29;1.90;99.90
7196;DHT22;3639;51.308;5.624;2023-01-26T10:56:57;1.90;99.90
7196;DHT22;3639;51.308;5.624;2023-01-26T10:59:24;2.00;99.90
7196;DHT22;3639;51.308;5.624;2023-01-26T11:01:52;2.00;99.90
7196;DHT22;3639;51.308;5.624;2023-01-26T11:04:19;2.00;99.90
7196;DHT22;3639;51.308;5.624;2023-01-26T11:06:44;2.00;99.90
7196;DHT22;3639;51.308;5.624;2023-01-26T11:09:17;2.00;99.90
7196;DHT22;3639;51.308;5.624;2023-01-26T11:12:03;2.00;99.90
7196;DHT22;3639;51.308;5.624;2023-01-26T11:14:32;2.00;99.90
7196;DHT22;3639;51.308;5.624;2023-01-26T11:17:35;2.10;99.90
7196;DHT22;3639;51.308;5.624;2023-01-26T11:22:48;2.00;99.90
7196;DHT22;3639;51.308;5.624;2023-01-26T11:30:51;2.10;99.90
7196;DHT22;3639;51.308;5.624;2023-01-26T11:33:49;2.20;99.90
7196;DHT22;3639;51.308;5.624;2023-01-26T11:36:36;2.20;99.90
7196;DHT22;3639;51.308;5.624;2023-01-26T11:39:14;2.30;99.90
7196;DHT22;3639;51.308;5.624;2023-01-26T11:44:50;2.30;99.90
7196;DHT22;3639;51.308;5.624;2023-01-26T11:50:22;2.30;99.90
7196;DHT22;3639;51.308;5.624;2023-01-26T11:56:11;2.30;99.90
7196;DHT22;3639;51.308;5.624;2023-01-26T12:01:14;2.50;99.90
7196;DHT22;3639;51.308;5.624;2023-01-26T12:03:45;2.50;99.90
7196;DHT22;3639;51.308;5.624;2023-01-26T12:06:21;2.50;99.90
7196;DHT22;3639;51.308;5.624;2023-01-26T12:09:09;2.60;99.90
7196;DHT22;3639;51.308;5.624;2023-01-26T12:14:52;2.50;99.90
7196;DHT22;3639;51.308;5.624;2023-01-26T12:22:47;2.70;99.90
7196;DHT22;3639;51.308;5.624;2023-01-26T12:25:33;2.70;99.90
7196;DHT22;3639;51.308;5.624;2023-01-26T12:28:24;2.90;99.90
7196;DHT22;3639;51.308;5.624;2023-01-26T12:31:10;2.90;99.90
7196;DHT22;3639;51.308;5.624;2023-01-26T12:33:37;2.90;99.90
7196;DHT22;3639;51.308;5.624;2023-01-26T12:41:59;3.20;99.90
7196;DHT22;3639;51.308;5.624;2023-01-26T12:44:39;3.20;99.90
7196;DHT22;3639;51.308;5.624;2023-01-26T12:49:59;3.30;99.90
7196;DHT22;3639;51.308;5.624;2023-01-26T12:52:42;3.50;99.90
7196;DHT22;3639;51.308;5.624;2023-01-26T12:58:12;3.60;99.90
7196;DHT22;3639;51.308;5.624;2023-01-26T13:00:39;3.60;99.90
7196;DHT22;3639;51.308;5.624;2023-01-26T13:03:23;3.70;99.90
7196;DHT22;3639;51.308;5.624;2023-01-26T13:05:59;3.80;99.90
7196;DHT22;3639;51.308;5.624;2023-01-26T13:10:58;3.90;99.90
7196;DHT22;3639;51.308;5.624;2023-01-26T13:13:30;4.00;99.90
7196;DHT22;3639;51.308;5.624;2023-01-26T13:18:51;4.10;99.90
7196;DHT22;3639;51.308;5.624;2023-01-26T13:21:43;4.10;99.90
7196;DHT22;3639;51.308;5.624;2023-01-26T13:26:44;4.20;99.90
7196;DHT22;3639;51.308;5.624;2023-01-26T13:29:30;4.30;99.90
7196;DHT22;3639;51.308;5.624;2023-01-26T13:32:49;4.30;99.90
7196;DHT22;3639;51.308;5.624;2023-01-26T13:34:53;4.30;99.90
7196;DHT22;3639;51.308;5.624;2023-01-26T13:51:06;4.50;99.90
7196;DHT22;3639;51.308;5.624;2023-01-26T13:53:37;4.50;99.90
7196;DHT22;3639;51.308;5.624;2023-01-26T13:58:51;4.70;99.90
7196;DHT22;3639;51.308;5.624;2023-01-26T14:01:17;4.70;99.90
7196;DHT22;3639;51.308;5.624;2023-01-26T14:03:43;4.60;99.90
7196;DHT22;3639;51.308;5.624;2023-01-26T14:06:13;4.60;99.90
7196;DHT22;3639;51.308;5.624;2023-01-26T14:08:45;4.70;99.90
7196;DHT22;3639;51.308;5.624;2023-01-26T14:11:19;4.70;99.90
7196;DHT22;3639;51.308;5.624;2023-01-26T14:13:50;4.70;99.90
7196;DHT22;3639;51.308;5.624;2023-01-26T14:16:32;4.70;99.90
7196;DHT22;3639;51.308;5.624;2023-01-26T14:21:49;4.80;99.90
7196;DHT22;3639;51.308;5.624;2023-01-26T14:24:15;4.90;99.90
7196;DHT22;3639;51.308;5.624;2023-01-26T14:26:41;5.00;99.90
7196;DHT22;3639;51.308;5.624;2023-01-26T14:29:27;5.00;99.90
7196;DHT22;3639;51.308;5.624;2023-01-26T14:31:57;5.00;99.90
7196;DHT22;3639;51.308;5.624;2023-01-26T14:34:28;4.90;99.90
7196;DHT22;3639;51.308;5.624;2023-01-26T14:37:27;4.80;99.90
7196;DHT22;3639;51.308;5.624;2023-01-26T14:40:19;4.80;99.90
7196;DHT22;3639;51.308;5.624;2023-01-26T14:42:51;4.80;99.90
7196;DHT22;3639;51.308;5.624;2023-01-26T14:45:21;4.70;99.90
7196;DHT22;3639;51.308;5.624;2023-01-26T14:47:50;4.70;99.90
7196;DHT22;3639;51.308;5.624;2023-01-26T14:50:23;4.70;99.90
7196;DHT22;3639;51.308;5.624;2023-01-26T14:52:52;4.60;99.90
7196;DHT22;3639;51.308;5.624;2023-01-26T14:55:23;4.70;99.90
7196;DHT22;3639;51.308;5.624;2023-01-26T14:57:50;4.60;99.90
7196;DHT22;3639;51.308;5.624;2023-01-26T15:00:34;4.70;99.90
7196;DHT22;3639;51.308;5.624;2023-01-26T15:03:04;4.70;99.90
7196;DHT22;3639;51.308;5.624;2023-01-26T15:05:39;4.70;99.90
7196;DHT22;3639;51.308;5.624;2023-01-26T15:08:21;4.70;99.90
7196;DHT22;3639;51.308;5.624;2023-01-26T15:10:55;4.70;99.90
7196;DHT22;3639;51.308;5.624;2023-01-26T15:13:43;4.70;99.90
7196;DHT22;3639;51.308;5.624;2023-01-26T15:16:23;4.70;99.90
7196;DHT22;3639;51.308;5.624;2023-01-26T15:18:59;4.70;99.90
7196;DHT22;3639;51.308;5.624;2023-01-26T15:21:32;4.70;99.90
7196;DHT22;3639;51.308;5.624;2023-01-26T15:23:58;4.70;99.90
7196;DHT22;3639;51.308;5.624;2023-01-26T15:26:32;4.70;99.90
7196;DHT22;3639;51.308;5.624;2023-01-26T15:29:00;4.80;99.90
7196;DHT22;3639;51.308;5.624;2023-01-26T15:31:39;4.80;99.90
7196;DHT22;3639;51.308;5.624;2023-01-26T15:34:25;4.80;99.90
7196;DHT22;3639;51.308;5.624;2023-01-26T15:36:51;4.80;99.90
7196;DHT22;3639;51.308;5.624;2023-01-26T15:39:18;4.80;99.90
7196;DHT22;3639;51.308;5.624;2023-01-26T15:41:56;4.80;99.90
7196;DHT22;3639;51.308;5.624;2023-01-26T15:44:22;4.80;99.90
7196;DHT22;3639;51.308;5.624;2023-01-26T15:46:48;4.80;99.90
7196;DHT22;3639;51.308;5.624;2023-01-26T15:49:14;4.80;99.90
7196;DHT22;3639;51.308;5.624;2023-01-26T15:51:39;4.80;99.90
7196;DHT22;3639;51.308;5.624;2023-01-26T15:54:05;4.80;99.90
7196;DHT22;3639;51.308;5.624;2023-01-26T15:56:31;4.80;99.90
7196;DHT22;3639;51.308;5.624;2023-01-26T15:58:57;4.70;99.90
7196;DHT22;3639;51.308;5.624;2023-01-26T16:01:23;4.60;99.90
7196;DHT22;3639;51.308;5.624;2023-01-26T16:03:50;4.60;99.90
7196;DHT22;3639;51.308;5.624;2023-01-26T16:06:25;4.60;99.90
7196;DHT22;3639;51.308;5.624;2023-01-26T16:08:52;4.60;99.90
7196;DHT22;3639;51.308;5.624;2023-01-26T16:11:20;4.60;99.90
7196;DHT22;3639;51.308;5.624;2023-01-26T16:13:46;4.60;99.90
7196;DHT22;3639;51.308;5.624;2023-01-26T16:16:13;4.60;99.90
7196;DHT22;3639;51.308;5.624;2023-01-26T16:18:39;4.70;99.90
7196;DHT22;3639;51.308;5.624;2023-01-26T16:21:33;4.70;99.90
7196;DHT22;3639;51.308;5.624;2023-01-26T16:24:00;4.70;99.90
7196;DHT22;3639;51.308;5.624;2023-01-26T16:26:27;4.60;99.90
7196;DHT22;3639;51.308;5.624;2023-01-26T16:28:53;4.60;99.90
7196;DHT22;3639;51.308;5.624;2023-01-26T16:31:21;4.50;99.90
7196;DHT22;3639;51.308;5.624;2023-01-26T16:33:48;4.50;99.90
7196;DHT22;3639;51.308;5.624;2023-01-26T16:36:16;4.40;99.90
7196;DHT22;3639;51.308;5.624;2023-01-26T16:38:42;4.40;99.90
7196;DHT22;3639;51.308;5.624;2023-01-26T16:41:21;4.40;99.90
7196;DHT22;3639;51.308;5.624;2023-01-26T16:43:48;4.40;99.90
7196;DHT22;3639;51.308;5.624;2023-01-26T16:46:13;4.40;99.90
7196;DHT22;3639;51.308;5.624;2023-01-26T16:48:39;4.40;99.90
7196;DHT22;3639;51.308;5.624;2023-01-26T16:51:23;4.40;99.90
7196;DHT22;3639;51.308;5.624;2023-01-26T16:53:49;4.40;99.90
7196;DHT22;3639;51.308;5.624;2023-01-26T16:56:15;4.50;99.90
7196;DHT22;3639;51.308;5.624;2023-01-26T16:58:41;4.60;99.90
7196;DHT22;3639;51.308;5.624;2023-01-26T17:01:16;4.60;99.90
7196;DHT22;3639;51.308;5.624;2023-01-26T17:03:42;4.60;99.90
7196;DHT22;3639;51.308;5.624;2023-01-26T17:06:08;4.70;99.90
7196;DHT22;3639;51.308;5.624;2023-01-26T17:08:34;4.70;99.90
7196;DHT22;3639;51.308;5.624;2023-01-26T17:11:00;4.70;99.90
7196;DHT22;3639;51.308;5.624;2023-01-26T17:13:25;4.70;99.90
7196;DHT22;3639;51.308;5.624;2023-01-26T17:15:51;4.70;99.90
7196;DHT22;3639;51.308;5.624;2023-01-26T17:18:17;4.80;99.90
7196;DHT22;3639;51.308;5.624;2023-01-26T17:20:42;4.90;99.90
7196;DHT22;3639;51.308;5.624;2023-01-26T17:23:08;4.90;99.90
7196;DHT22;3639;51.308;5.624;2023-01-26T17:25:34;4.90;99.90
7196;DHT22;3639;51.308;5.624;2023-01-26T17:27:59;4.90;99.90
7196;DHT22;3639;51.308;5.624;2023-01-26T17:30:25;4.90;99.90
7196;DHT22;3639;51.308;5.624;2023-01-26T17:32:51;5.00;99.90
7196;DHT22;3639;51.308;5.624;2023-01-26T17:35:16;5.00;99.90
7196;DHT22;3639;51.308;5.624;2023-01-26T17:37:42;5.10;99.90
7196;DHT22;3639;51.308;5.624;2023-01-26T17:40:09;5.20;99.90
7196;DHT22;3639;51.308;5.624;2023-01-26T17:42:35;5.20;99.90
7196;DHT22;3639;51.308;5.624;2023-01-26T17:45:02;5.30;99.90
7196;DHT22;3639;51.308;5.624;2023-01-26T17:47:31;5.40;99.90
7196;DHT22;3639;51.308;5.624;2023-01-26T17:49:58;5.40;99.90
7196;DHT22;3639;51.308;5.624;2023-01-26T17:52:24;5.50;99.90
7196;DHT22;3639;51.308;5.624;2023-01-26T17:54:50;5.40;99.90
7196;DHT22;3639;51.308;5.624;2023-01-26T17:57:16;5.40;99.90
7196;DHT22;3639;51.308;5.624;2023-01-26T17:59:41;5.40;99.90
7196;DHT22;3639;51.308;5.624;2023-01-26T18:02:09;5.40;99.90